Startpagina
METAR-TAF:

METAR-TAF

Vliegvelden :

Nueva Loja, Ecuador

breedte: 00-05-33N, lengte: 076-52-10W, hoogte: 299 m

Actueel weer

Dit bericht is 8 uur en het 44 minuten geleden gemaakt, om 23:00 UTC
Weinig wind
Temperatuur 29°C
Vochtigheid 70%
Druk 1009 hPa
Zicht 10 km of meer
geen wolken onder 1500 m en geen cumulonimbus

METAR: SENL 202300Z 00000KT CAVOK 29/23 Q1009 RMK A2982

Tijdstip: 02:44 (07:44 UTC)


TAF: ontbreekt

Waarnemingen en weersverwachtingen van meer dan 4000 vliegvelden (METAR en TAF).

De beschikbare stations zijn de gele en rode punten op de kaart.

Ga met uw muis naar het station om de naam te zien.

Klik dan om waarnemingen en weersverwachtingen te zien.

kaart wijzigen: klik op de groene knoppen met een zwart kruis om in te zoomen, op de groene knop met een streepje om uit te zoomen of op de groene pijlen voor aangrenzende kaarten.


METAR-TAF: